createdAt,value
2018-12-19T00:00:44.316Z,1008.18
2018-12-19T00:01:44.596Z,1008.18
2018-12-19T00:02:44.435Z,1008.13
2018-12-19T00:03:44.361Z,1008.22
2018-12-19T00:04:44.402Z,1008.17
2018-12-19T00:05:44.467Z,1008.16
2018-12-19T00:06:44.453Z,1008.19
2018-12-19T00:07:44.485Z,1008.12
2018-12-19T00:08:44.860Z,1008.08
2018-12-19T00:09:44.598Z,1008.11
2018-12-19T00:10:44.626Z,1008.12
2018-12-19T00:11:44.601Z,1008.13
2018-12-19T00:12:44.688Z,1008.12
2018-12-19T00:13:44.672Z,1008.03
2018-12-19T00:14:44.998Z,1008.11
2018-12-19T00:15:44.780Z,1008.00
2018-12-19T00:16:44.814Z,1007.98
2018-12-19T00:17:44.836Z,1007.90
2018-12-19T00:18:44.826Z,1007.92
2018-12-19T00:19:44.852Z,1008.02
2018-12-19T00:20:45.236Z,1008.00
2018-12-19T00:21:44.972Z,1008.06
2018-12-19T00:22:44.951Z,1008.16
2018-12-19T00:23:44.975Z,1008.18
2018-12-19T00:24:45.005Z,1008.17
2018-12-19T00:25:45.031Z,1008.08
2018-12-19T00:26:45.362Z,1008.07
2018-12-19T00:27:45.103Z,1008.09
2018-12-19T00:28:45.179Z,1008.11
2018-12-19T00:29:45.154Z,1008.15
2018-12-19T00:30:45.185Z,1008.19
2018-12-19T00:31:45.269Z,1008.19
2018-12-19T00:32:45.303Z,1008.12
2018-12-19T00:33:45.581Z,1008.12
2018-12-19T00:34:45.307Z,1008.06
2018-12-19T00:35:45.344Z,1008.04
2018-12-19T00:36:45.369Z,1008.03
2018-12-19T00:37:45.450Z,1008.05
2018-12-19T00:39:45.467Z,1007.97
2018-12-19T00:40:45.541Z,1007.97
2018-12-19T00:41:45.525Z,1007.94
2018-12-19T00:42:45.553Z,1007.98
2018-12-19T00:43:45.640Z,1007.95
2018-12-19T00:44:45.672Z,1007.88
2018-12-19T00:45:45.696Z,1007.84
2018-12-19T00:46:45.983Z,1007.74
2018-12-19T00:47:45.707Z,1007.58
2018-12-19T00:48:45.795Z,1007.52
2018-12-19T00:49:46.245Z,1007.64
2018-12-19T00:50:45.863Z,1007.82
2018-12-19T00:51:45.834Z,1007.83
2018-12-19T00:52:45.911Z,1007.76
2018-12-19T00:53:46.191Z,1007.79
2018-12-19T00:54:45.928Z,1007.74
2018-12-19T00:55:46.006Z,1007.72
2018-12-19T00:56:45.989Z,1007.70
2018-12-19T00:57:46.068Z,1007.72
2018-12-19T00:58:46.047Z,1007.68
2018-12-19T00:59:46.080Z,1007.68
2018-12-19T01:00:46.458Z,1007.72
2018-12-19T01:01:46.190Z,1007.78
2018-12-19T01:02:46.221Z,1007.76
2018-12-19T01:03:46.250Z,1007.76
2018-12-19T01:04:48.178Z,1007.82
2018-12-19T01:05:46.314Z,1007.80
2018-12-19T01:06:46.291Z,1007.82
2018-12-19T01:07:46.627Z,1007.79
2018-12-19T01:08:46.402Z,1007.83
2018-12-19T01:09:46.446Z,1007.81
2018-12-19T01:10:46.413Z,1007.79
2018-12-19T01:11:46.446Z,1007.80
2018-12-19T01:12:46.531Z,1007.79
2018-12-19T01:13:46.559Z,1007.67
2018-12-19T01:14:46.836Z,1007.56
2018-12-19T01:15:46.571Z,1007.49
2018-12-19T01:16:46.597Z,1007.41
2018-12-19T01:18:46.714Z,1007.78
2018-12-19T01:19:46.740Z,1007.60
2018-12-19T01:20:46.775Z,1007.71
2018-12-19T01:21:47.053Z,1007.85
2018-12-19T01:22:46.785Z,1007.85
2018-12-19T01:23:46.815Z,1007.94
2018-12-19T01:24:46.892Z,1007.96
2018-12-19T01:25:46.929Z,1007.93
2018-12-19T01:26:46.912Z,1007.92
2018-12-19T01:27:46.934Z,1007.93
2018-12-19T01:28:47.272Z,1007.89
2018-12-19T01:29:46.998Z,1007.86
2018-12-19T01:30:47.076Z,1007.87
2018-12-19T01:31:47.066Z,1007.82
2018-12-19T01:32:47.147Z,1007.84
2018-12-19T01:33:47.178Z,1007.87
2018-12-19T01:34:47.202Z,1007.85
2018-12-19T01:35:47.539Z,1007.85
2018-12-19T01:36:47.263Z,1007.85
2018-12-19T01:37:47.241Z,1007.87
2018-12-19T01:38:47.276Z,1007.86
2018-12-19T01:39:47.313Z,1007.85
2018-12-19T01:40:47.382Z,1007.88
2018-12-19T01:41:47.725Z,1007.89
2018-12-19T01:42:47.426Z,1007.94
2018-12-19T01:43:47.427Z,1007.92
2018-12-19T01:44:47.514Z,1007.87
2018-12-19T01:45:47.489Z,1007.89
2018-12-19T01:46:47.567Z,1007.96
2018-12-19T01:47:47.548Z,1007.94
2018-12-19T01:48:47.641Z,1007.99
2018-12-19T01:49:47.612Z,1008.03
2018-12-19T01:50:47.693Z,1007.94
2018-12-19T01:51:47.725Z,1007.97
2018-12-19T01:53:47.735Z,1008.01
2018-12-19T01:54:48.068Z,1007.94
2018-12-19T01:55:47.852Z,1007.95
2018-12-19T01:56:47.881Z,1007.97
2018-12-19T01:57:47.913Z,1008.04
2018-12-19T02:00:47.954Z,1007.96
2018-12-19T02:01:48.285Z,1007.93
2018-12-19T02:02:48.019Z,1007.87
2018-12-19T02:04:48.122Z,1007.93
2018-12-19T02:05:48.159Z,1007.98
2018-12-19T02:06:48.137Z,1007.94
2018-12-19T02:07:48.472Z,1007.96
2018-12-19T02:08:48.192Z,1007.99
2018-12-19T02:09:48.278Z,1008.00
2018-12-19T02:10:48.255Z,1008.01
2018-12-19T02:11:48.290Z,1007.97
2018-12-19T02:12:48.376Z,1007.92
2018-12-19T02:13:48.348Z,1007.94
2018-12-19T02:14:48.437Z,1007.93
2018-12-19T02:15:48.410Z,1007.89
2018-12-19T02:16:48.445Z,1007.81
2018-12-19T02:17:48.474Z,1007.86
2018-12-19T02:18:48.504Z,1007.80
2018-12-19T02:19:48.582Z,1007.83
2018-12-19T02:20:48.912Z,1007.84
2018-12-19T02:21:48.591Z,1007.94
2018-12-19T02:22:48.623Z,1008.05
2018-12-19T02:23:48.654Z,1008.11
2018-12-19T02:24:48.740Z,1008.15
2018-12-19T02:25:48.765Z,1008.03
2018-12-19T02:26:48.794Z,1007.94
2018-12-19T02:27:49.084Z,1007.91
2018-12-19T02:28:48.814Z,1007.89
2018-12-19T02:29:48.840Z,1007.80
2018-12-19T02:30:48.973Z,1007.72
2018-12-19T02:31:48.907Z,1007.66
2018-12-19T02:32:48.981Z,1007.69
2018-12-19T02:33:49.017Z,1007.66
2018-12-19T02:34:49.290Z,1007.71
2018-12-19T02:35:49.031Z,1007.71
2018-12-19T02:36:49.116Z,1007.73
2018-12-19T02:37:49.197Z,1007.73
2018-12-19T02:38:49.114Z,1007.70
2018-12-19T02:39:49.150Z,1007.79
2018-12-19T02:40:49.247Z,1007.82
2018-12-19T02:41:49.510Z,1007.82
2018-12-19T02:42:49.300Z,1007.79
2018-12-19T02:43:49.275Z,1007.81
2018-12-19T02:44:49.303Z,1007.77
2018-12-19T02:45:49.332Z,1007.77
2018-12-19T02:46:49.365Z,1007.71
2018-12-19T02:47:49.443Z,1007.75
2018-12-19T02:48:49.775Z,1007.76
2018-12-19T02:49:49.499Z,1007.73
2018-12-19T02:50:49.494Z,1007.75
2018-12-19T02:51:49.523Z,1007.71
2018-12-19T02:52:49.595Z,1007.72
2018-12-19T02:53:49.633Z,1007.72
2018-12-19T02:54:49.667Z,1007.76
2018-12-19T02:55:49.941Z,1007.70
2018-12-19T02:56:49.670Z,1007.74
2018-12-19T02:57:49.704Z,1007.74
2018-12-19T02:58:49.733Z,1007.70
2018-12-19T02:59:49.816Z,1007.64
2018-12-19T03:00:49.846Z,1007.57
2018-12-19T03:01:49.877Z,1007.53
2018-12-19T03:03:49.932Z,1007.49
2018-12-19T03:04:49.968Z,1007.50
2018-12-19T03:05:49.943Z,1007.47
2018-12-19T03:06:50.032Z,1007.48
2018-12-19T03:07:50.363Z,1007.43
2018-12-19T03:08:50.040Z,1007.40
2018-12-19T03:09:50.116Z,1007.34
2018-12-19T03:10:50.156Z,1007.35
2018-12-19T03:11:50.130Z,1007.31
2018-12-19T03:12:50.215Z,1007.31
2018-12-19T03:13:50.542Z,1007.28
2018-12-19T03:14:50.225Z,1007.26
2018-12-19T03:15:50.306Z,1007.23
2018-12-19T03:16:50.336Z,1007.22
2018-12-19T03:17:50.360Z,1007.16
2018-12-19T03:18:50.390Z,1007.13
2018-12-19T03:19:50.422Z,1007.09
2018-12-19T03:20:50.710Z,1007.05
2018-12-19T03:21:50.489Z,1007.09
2018-12-19T03:22:50.468Z,1007.12
2018-12-19T03:23:52.002Z,1007.09
2018-12-19T03:24:50.577Z,1007.12
2018-12-19T03:25:50.608Z,1007.13
2018-12-19T03:26:50.588Z,1007.11
2018-12-19T03:27:50.920Z,1007.16
2018-12-19T03:28:50.649Z,1007.06
2018-12-19T03:29:50.733Z,1007.07
2018-12-19T03:30:53.281Z,1007.14
2018-12-19T03:31:50.766Z,1007.19
2018-12-19T03:32:50.783Z,1007.19
2018-12-19T03:33:50.852Z,1007.22
2018-12-19T03:34:51.144Z,1007.15
2018-12-19T03:35:51.019Z,1007.11
2018-12-19T03:36:50.953Z,1007.11
2018-12-19T03:37:50.928Z,1007.06
2018-12-19T03:38:51.017Z,1007.08
2018-12-19T03:39:51.095Z,1007.09
2018-12-19T03:40:51.069Z,1007.10
2018-12-19T03:41:51.406Z,1007.04
2018-12-19T03:42:51.093Z,1007.04
2018-12-19T03:43:51.158Z,1007.00
2018-12-19T03:44:51.195Z,1006.95
2018-12-19T03:45:51.229Z,1006.99
2018-12-19T03:46:51.252Z,1006.97
2018-12-19T03:47:51.235Z,1006.95
2018-12-19T03:48:51.614Z,1007.00
2018-12-19T03:49:51.314Z,1006.94
2018-12-19T03:50:51.378Z,1007.04
2018-12-19T03:51:51.408Z,1007.05
2018-12-19T03:52:51.441Z,1007.03
2018-12-19T03:53:51.419Z,1006.96
2018-12-19T03:54:51.500Z,1006.90
2018-12-19T03:55:51.784Z,1006.89
2018-12-19T03:56:51.572Z,1006.84
2018-12-19T03:57:51.601Z,1006.78
2018-12-19T03:58:51.623Z,1006.77
2018-12-19T03:59:51.607Z,1006.77
2018-12-19T04:00:51.684Z,1006.69
2018-12-19T04:01:51.724Z,1006.72
2018-12-19T04:02:52.003Z,1006.75
2018-12-19T04:04:51.817Z,1006.77
2018-12-19T04:06:51.818Z,1006.82
2018-12-19T04:07:52.003Z,1006.75
2018-12-19T04:08:51.936Z,1006.76
2018-12-19T04:09:57.726Z,1006.71
2018-12-19T04:10:51.946Z,1006.72
2018-12-19T04:12:52.018Z,1006.65
2018-12-19T04:13:52.147Z,1006.61
2018-12-19T04:14:52.119Z,1006.64
2018-12-19T04:15:52.102Z,1006.67
2018-12-19T04:16:52.429Z,1006.70
2018-12-19T04:17:52.165Z,1006.66
2018-12-19T04:18:52.191Z,1006.75
2018-12-19T04:19:52.273Z,1006.82
2018-12-19T04:20:52.309Z,1006.86
2018-12-19T04:21:52.388Z,1006.80
2018-12-19T04:22:52.362Z,1006.78
2018-12-19T04:23:52.654Z,1006.75
2018-12-19T04:24:52.422Z,1006.87
2018-12-19T04:25:52.506Z,1006.86
2018-12-19T04:26:52.489Z,1006.87
2018-12-19T04:27:52.470Z,1006.94
2018-12-19T04:28:52.552Z,1006.93
2018-12-19T04:29:52.590Z,1006.98
2018-12-19T04:30:52.860Z,1006.94
2018-12-19T04:31:52.600Z,1006.95
2018-12-19T04:32:52.623Z,1006.94
2018-12-19T04:33:52.800Z,1006.99
2018-12-19T04:34:52.682Z,1007.02
2018-12-19T04:35:52.766Z,1007.03
2018-12-19T04:36:54.457Z,1007.00
2018-12-19T04:37:53.072Z,1006.99
2018-12-19T04:38:52.852Z,1006.97
2018-12-19T04:39:52.839Z,1006.98
2018-12-19T04:41:52.351Z,1006.92
2018-12-19T04:42:52.327Z,1006.93
2018-12-19T04:43:52.412Z,1006.95
2018-12-19T04:44:52.388Z,1006.97
2018-12-19T04:45:52.427Z,1006.91
2018-12-19T04:46:52.503Z,1006.92
2018-12-19T04:47:52.482Z,1006.89
2018-12-19T04:48:52.564Z,1006.89
2018-12-19T04:49:52.550Z,1006.87
2018-12-19T04:50:52.573Z,1006.95
2018-12-19T04:51:52.655Z,1006.97
2018-12-19T04:52:52.687Z,1006.97
2018-12-19T04:53:52.720Z,1006.96
2018-12-19T04:54:52.698Z,1007.00
2018-12-19T04:55:52.736Z,1006.97
2018-12-19T04:56:52.762Z,1006.95
2018-12-19T04:57:52.841Z,1006.99
2018-12-19T04:58:52.823Z,1006.97
2018-12-19T04:59:52.902Z,1006.97
2018-12-19T05:00:52.883Z,1007.03
2018-12-19T05:01:52.910Z,1007.00
2018-12-19T05:02:52.996Z,1006.98
2018-12-19T05:03:53.025Z,1006.97
2018-12-19T05:04:53.006Z,1006.98
2018-12-19T05:05:53.042Z,1006.96
2018-12-19T05:06:53.069Z,1006.94
2018-12-19T05:07:53.121Z,1006.89
2018-12-19T05:08:53.181Z,1006.92
2018-12-19T05:09:53.215Z,1006.96
2018-12-19T05:10:53.188Z,1006.98
2018-12-19T05:11:53.273Z,1006.96
2018-12-19T05:12:53.248Z,1007.03
2018-12-19T05:13:53.335Z,1007.11
2018-12-19T05:14:53.361Z,1007.12
2018-12-19T05:15:53.392Z,1007.22
2018-12-19T05:16:53.422Z,1007.19
2018-12-19T05:17:53.406Z,1007.22
2018-12-19T05:18:53.541Z,1007.22
2018-12-19T05:19:53.520Z,1007.19
2018-12-19T05:20:53.496Z,1007.20
2018-12-19T05:21:53.541Z,1007.18
2018-12-19T05:22:53.566Z,1007.20
2018-12-19T05:23:53.635Z,1007.22
2018-12-19T05:24:53.622Z,1007.17
2018-12-19T05:25:53.707Z,1007.25
2018-12-19T05:26:53.684Z,1007.24
2018-12-19T05:27:53.709Z,1007.24
2018-12-19T05:28:53.790Z,1007.22
2018-12-19T05:29:53.777Z,1007.19
2018-12-19T05:30:53.806Z,1007.15
2018-12-19T05:31:53.887Z,1007.16
2018-12-19T05:32:53.868Z,1007.19
2018-12-19T05:33:53.951Z,1007.25
2018-12-19T05:34:53.981Z,1007.27
2018-12-19T05:35:54.007Z,1007.25
2018-12-19T05:36:53.993Z,1007.26
2018-12-19T05:37:54.068Z,1007.24
2018-12-19T05:38:54.048Z,1007.32
2018-12-19T05:39:54.138Z,1007.27
2018-12-19T05:40:54.120Z,1007.32
2018-12-19T05:41:54.195Z,1007.33
2018-12-19T05:42:54.181Z,1007.34
2018-12-19T05:43:54.252Z,1007.35
2018-12-19T05:44:54.284Z,1007.31
2018-12-19T05:45:54.322Z,1007.34
2018-12-19T05:46:54.347Z,1007.39
2018-12-19T05:47:54.326Z,1007.38
2018-12-19T05:48:54.365Z,1007.40
2018-12-19T05:49:54.394Z,1007.36
2018-12-19T05:50:54.424Z,1007.38
2018-12-19T05:51:54.503Z,1007.39
2018-12-19T05:52:54.480Z,1007.41
2018-12-19T05:53:54.560Z,1007.42
2018-12-19T05:54:54.651Z,1007.42
2018-12-19T05:55:54.572Z,1007.43
2018-12-19T05:56:54.653Z,1007.43
2018-12-19T05:57:54.682Z,1007.42
2018-12-19T05:58:54.670Z,1007.42
2018-12-19T05:59:54.695Z,1007.39
2018-12-19T06:00:54.731Z,1007.42
2018-12-19T06:01:54.775Z,1007.42
2018-12-19T06:02:54.845Z,1007.44
2018-12-19T06:03:54.818Z,1007.41
2018-12-19T06:04:54.853Z,1007.45
2018-12-19T06:05:54.885Z,1007.43
2018-12-19T06:06:54.967Z,1007.43
2018-12-19T06:07:55.001Z,1007.46
2018-12-19T06:08:54.990Z,1007.47
2018-12-19T06:09:55.017Z,1007.47
2018-12-19T06:10:55.038Z,1007.50
2018-12-19T06:11:55.126Z,1007.55
2018-12-19T06:12:55.113Z,1007.53
2018-12-19T06:13:55.230Z,1007.55
2018-12-19T06:14:55.163Z,1007.56
2018-12-19T06:15:55.239Z,1007.55
2018-12-19T06:16:55.285Z,1007.54
2018-12-19T06:17:55.299Z,1007.53
2018-12-19T06:18:55.285Z,1007.52
2018-12-19T06:19:55.311Z,1007.49
2018-12-19T06:20:55.395Z,1007.48
2018-12-19T06:21:55.378Z,1007.49
2018-12-19T06:22:55.455Z,1007.48
2018-12-19T06:23:55.434Z,1007.49
2018-12-19T06:24:55.526Z,1007.47
2018-12-19T06:25:55.551Z,1007.50
2018-12-19T06:26:55.527Z,1007.48
2018-12-19T06:27:55.611Z,1007.51
2018-12-19T06:28:55.592Z,1007.56
2018-12-19T06:29:55.669Z,1007.56
2018-12-19T06:30:55.656Z,1007.51
2018-12-19T06:31:55.685Z,1007.54
2018-12-19T06:32:55.768Z,1007.56
2018-12-19T06:33:55.799Z,1007.57
2018-12-19T06:34:55.775Z,1007.59
2018-12-19T06:35:55.812Z,1007.57
2018-12-19T06:36:55.840Z,1007.58
2018-12-19T06:37:55.925Z,1007.58
2018-12-19T06:38:55.903Z,1007.61
2018-12-19T06:40:56.021Z,1007.59
2018-12-19T06:41:56.042Z,1007.62
2018-12-19T06:42:56.026Z,1007.60
2018-12-19T06:43:56.104Z,1007.65
2018-12-19T06:44:56.082Z,1007.60
2018-12-19T06:45:56.162Z,1007.63
2018-12-19T06:46:56.195Z,1007.66
2018-12-19T06:47:56.180Z,1007.68
2018-12-19T06:48:56.262Z,1007.67
2018-12-19T06:49:56.291Z,1007.64
2018-12-19T06:50:56.269Z,1007.69
2018-12-19T06:51:56.353Z,1007.68
2018-12-19T06:52:56.331Z,1007.66
2018-12-19T06:54:56.444Z,1007.70
2018-12-19T06:55:56.428Z,1007.70
2018-12-19T06:56:56.508Z,1007.72
2018-12-19T06:57:56.546Z,1007.68
2018-12-19T06:58:56.580Z,1007.68
2018-12-19T06:59:56.552Z,1007.72
2018-12-19T07:00:56.577Z,1007.73
2018-12-19T07:01:56.673Z,1007.72
2018-12-19T07:02:56.649Z,1007.72
2018-12-19T07:03:56.721Z,1007.79
2018-12-19T07:04:56.699Z,1007.74
2018-12-19T07:05:56.785Z,1007.77
2018-12-19T07:06:56.766Z,1007.73
2018-12-19T07:07:56.847Z,1007.77
2018-12-19T07:08:56.822Z,1007.78
2018-12-19T07:09:56.854Z,1007.76
2018-12-19T07:10:56.885Z,1007.76
2018-12-19T07:11:56.916Z,1007.81
2018-12-19T07:12:56.998Z,1007.81
2018-12-19T07:14:57.064Z,1007.82
2018-12-19T07:15:57.044Z,1007.78
2018-12-19T07:16:57.072Z,1007.83
2018-12-19T07:17:57.107Z,1007.85
2018-12-19T07:18:57.192Z,1007.85
2018-12-19T07:19:57.222Z,1007.86
2018-12-19T07:20:57.205Z,1007.90
2018-12-19T07:21:57.229Z,1007.87
2018-12-19T07:22:57.256Z,1007.89
2018-12-19T07:23:57.342Z,1007.91
2018-12-19T07:24:57.323Z,1007.95
2018-12-19T07:25:57.399Z,1007.96
2018-12-19T07:26:57.385Z,1007.97
2018-12-19T07:27:57.415Z,1007.97
2018-12-19T07:28:57.451Z,1007.96
2018-12-19T07:29:57.481Z,1007.95
2018-12-19T07:30:57.559Z,1007.98
2018-12-19T07:31:57.584Z,1008.01
2018-12-19T07:32:57.617Z,1008.04
2018-12-19T07:33:57.601Z,1008.05
2018-12-19T07:34:57.677Z,1008.05
2018-12-19T07:35:57.664Z,1008.06
2018-12-19T07:36:57.739Z,1008.08
2018-12-19T07:37:57.774Z,1008.11
2018-12-19T07:38:57.929Z,1008.16
2018-12-19T07:39:57.785Z,1008.13
2018-12-19T07:40:57.823Z,1008.13
2018-12-19T07:42:57.930Z,1008.16
2018-12-19T07:43:57.959Z,1008.15
2018-12-19T07:44:57.937Z,1008.19
2018-12-19T07:45:58.124Z,1008.17
2018-12-19T07:46:58.003Z,1008.19
2018-12-19T07:47:58.084Z,1008.18
2018-12-19T07:48:58.063Z,1008.18
2018-12-19T07:50:58.179Z,1008.24
2018-12-19T07:51:58.159Z,1008.20
2018-12-19T07:52:58.240Z,1008.23
2018-12-19T07:53:58.272Z,1008.20
2018-12-19T07:54:58.260Z,1008.22
2018-12-19T07:56:58.312Z,1008.20
2018-12-19T07:57:58.394Z,1008.22
2018-12-19T07:58:58.376Z,1008.23
2018-12-19T07:59:58.450Z,1008.27
2018-12-19T08:00:58.440Z,1008.24
2018-12-19T08:01:58.470Z,1008.28
2018-12-19T08:02:58.567Z,1008.26
2018-12-19T08:03:58.524Z,1008.31
2018-12-19T08:04:58.608Z,1008.30
2018-12-19T08:05:58.587Z,1008.31
2018-12-19T08:06:58.626Z,1008.32
2018-12-19T08:07:58.663Z,1008.32
2018-12-19T08:08:58.682Z,1008.35
2018-12-19T08:09:58.760Z,1008.37
2018-12-19T08:10:58.807Z,1008.38
2018-12-19T08:11:58.880Z,1008.39
2018-12-19T08:12:58.868Z,1008.35
2018-12-19T08:13:58.864Z,1008.37
2018-12-19T08:14:58.919Z,1008.36
2018-12-19T08:15:58.947Z,1008.36
2018-12-19T08:16:58.935Z,1008.38
2018-12-19T08:17:58.961Z,1008.37
2018-12-19T08:18:59.047Z,1008.40
2018-12-19T08:19:59.076Z,1008.46
2018-12-19T08:20:59.051Z,1008.44
2018-12-19T08:21:59.085Z,1008.45
2018-12-19T08:22:59.117Z,1008.52
2018-12-19T08:24:59.229Z,1008.50
2018-12-19T08:25:59.257Z,1008.55
2018-12-19T08:26:59.249Z,1008.53
2018-12-19T08:27:59.324Z,1008.54
2018-12-19T08:28:59.308Z,1008.54
2018-12-19T08:29:59.387Z,1008.55
2018-12-19T08:30:59.368Z,1008.53
2018-12-19T08:31:59.401Z,1008.55
2018-12-19T08:32:59.473Z,1008.60
2018-12-19T08:33:59.502Z,1008.56
2018-12-19T08:34:59.490Z,1008.61
2018-12-19T08:35:59.572Z,1008.61
2018-12-19T08:36:59.702Z,1008.64
2018-12-19T08:37:59.634Z,1008.65
2018-12-19T08:39:59.646Z,1008.71
2018-12-19T08:40:59.676Z,1008.69
2018-12-19T08:41:59.760Z,1008.71
2018-12-19T08:42:59.738Z,1008.72
2018-12-19T08:43:59.772Z,1008.71
2018-12-19T08:44:59.843Z,1008.74
2018-12-19T08:45:59.876Z,1008.74
2018-12-19T08:46:59.910Z,1008.77
2018-12-19T08:47:59.885Z,1008.79
2018-12-19T08:48:59.971Z,1008.80
2018-12-19T08:50:00.005Z,1008.80
2018-12-19T08:50:59.980Z,1008.79
2018-12-19T08:52:00.011Z,1008.81
2018-12-19T08:53:00.107Z,1008.80
2018-12-19T08:54:00.129Z,1008.84
2018-12-19T08:55:00.126Z,1008.86
2018-12-19T08:56:00.291Z,1008.88
2018-12-19T08:57:00.172Z,1008.86
2018-12-19T08:58:00.197Z,1008.88
2018-12-19T08:59:00.285Z,1008.84
2018-12-19T09:00:00.318Z,1008.89
2018-12-19T09:01:00.393Z,1008.88
2018-12-19T09:02:00.423Z,1008.88
2018-12-19T09:03:00.360Z,1008.88
2018-12-19T09:04:00.434Z,1008.87
2018-12-19T09:05:00.473Z,1008.85
2018-12-19T09:06:00.502Z,1008.83
2018-12-19T09:07:00.540Z,1008.90
2018-12-19T09:08:00.513Z,1008.91
2018-12-19T09:09:00.539Z,1008.88
2018-12-19T09:10:00.629Z,1008.84
2018-12-19T09:11:05.645Z,1008.87
2018-12-19T09:12:00.685Z,1008.86
2018-12-19T09:13:00.668Z,1008.89
2018-12-19T09:14:00.698Z,1008.90
2018-12-19T09:15:00.882Z,1008.90
2018-12-19T09:16:00.809Z,1008.89
2018-12-19T09:17:00.843Z,1008.89
2018-12-19T09:18:00.869Z,1008.91
2018-12-19T09:23:01.030Z,1008.93
2018-12-19T09:24:01.059Z,1008.97
2018-12-19T09:25:01.039Z,1008.96
2018-12-19T09:26:01.172Z,1008.98
2018-12-19T09:27:01.108Z,1009.00
2018-12-19T09:28:01.179Z,1008.98
2018-12-19T09:30:01.421Z,1008.97
2018-12-19T09:31:01.276Z,1009.00
2018-12-19T09:32:01.254Z,1008.95
2018-12-19T09:33:01.342Z,1008.97
2018-12-19T09:34:01.316Z,1008.97
2018-12-19T09:35:01.353Z,1008.94
2018-12-19T09:36:01.379Z,1008.94
2018-12-19T09:37:01.412Z,1008.99
2018-12-19T09:38:01.716Z,1009.02
2018-12-19T09:40:01.563Z,1008.96
2018-12-19T09:42:01.620Z,1008.93
2018-12-19T09:43:01.655Z,1008.92
2018-12-19T09:44:01.684Z,1008.95
2018-12-19T09:45:01.661Z,1008.96
2018-12-19T09:46:01.695Z,1009.00
2018-12-19T09:48:01.806Z,1008.96
2018-12-19T09:49:01.838Z,1008.98
2018-12-19T09:50:01.827Z,1008.98
2018-12-19T09:51:01.845Z,1008.96
2018-12-19T09:52:01.883Z,1009.00
2018-12-19T09:53:01.916Z,1009.01
2018-12-19T09:54:02.033Z,1008.98
2018-12-19T09:55:02.020Z,1008.99
2018-12-19T09:56:02.062Z,1009.02
2018-12-19T09:57:02.085Z,1009.04
2018-12-19T09:58:02.073Z,1009.01
2018-12-19T09:59:02.094Z,1009.05
2018-12-19T10:00:02.242Z,1009.04
2018-12-19T10:01:02.162Z,1009.07
2018-12-19T10:02:02.247Z,1009.06
2018-12-19T10:03:02.223Z,1009.02
2018-12-19T10:04:02.301Z,1009.05
2018-12-19T10:05:02.342Z,1009.03
2018-12-19T10:06:02.371Z,1009.05
2018-12-19T10:07:02.397Z,1009.05
2018-12-19T10:08:02.427Z,1009.04
2018-12-19T10:09:02.420Z,1008.99
2018-12-19T10:10:02.446Z,1009.00
2018-12-19T10:11:02.477Z,1008.98
2018-12-19T10:12:02.560Z,1009.00
2018-12-19T10:13:02.541Z,1008.96
2018-12-19T10:14:02.621Z,1008.95
2018-12-19T10:15:02.607Z,1008.94
2018-12-19T10:16:04.160Z,1008.93
2018-12-19T10:17:02.759Z,1008.90
2018-12-19T10:18:02.692Z,1008.92
2018-12-19T10:19:02.778Z,1008.88
2018-12-19T10:20:02.753Z,1008.91
2018-12-19T10:21:02.839Z,1008.88
2018-12-19T10:22:02.817Z,1008.84
2018-12-19T10:23:02.844Z,1008.83
2018-12-19T10:24:02.931Z,1008.75
2018-12-19T10:25:02.914Z,1008.72
2018-12-19T10:26:02.999Z,1008.73
2018-12-19T10:28:03.004Z,1008.66
2018-12-19T10:29:03.088Z,1008.64
2018-12-19T10:31:03.153Z,1008.67
2018-12-19T10:33:03.218Z,1008.61
2018-12-19T10:35:03.296Z,1008.57
2018-12-19T10:37:03.284Z,1008.52
2018-12-19T10:38:03.379Z,1008.54
2018-12-19T10:39:03.554Z,1008.54
2018-12-19T10:40:03.443Z,1008.55
2018-12-19T10:41:03.410Z,1008.53
2018-12-19T10:42:03.501Z,1008.54
2018-12-19T10:43:03.472Z,1008.52
2018-12-19T10:44:03.509Z,1008.49
2018-12-19T10:45:03.591Z,1008.52
2018-12-19T10:46:03.639Z,1008.47
2018-12-19T10:47:03.599Z,1008.48
2018-12-19T10:48:03.649Z,1008.47
2018-12-19T10:49:03.659Z,1008.50
2018-12-19T10:50:03.750Z,1008.42
2018-12-19T10:51:03.783Z,1008.45
2018-12-19T10:52:03.810Z,1008.43
2018-12-19T10:53:03.793Z,1008.44
2018-12-19T10:54:03.872Z,1008.41
2018-12-19T10:55:03.865Z,1008.41
2018-12-19T10:56:03.935Z,1008.37
2018-12-19T10:57:03.915Z,1008.38
2018-12-19T10:58:04.003Z,1008.39
2018-12-19T10:59:03.975Z,1008.39
2018-12-19T11:00:04.063Z,1008.36
2018-12-19T11:01:04.045Z,1008.35
2018-12-19T11:02:04.129Z,1008.37
2018-12-19T11:03:04.106Z,1008.35
2018-12-19T11:05:04.220Z,1008.41
2018-12-19T11:06:04.204Z,1008.35
2018-12-19T11:07:04.281Z,1008.35
2018-12-19T11:08:04.259Z,1008.34
2018-12-19T11:09:04.293Z,1008.33
2018-12-19T11:10:04.373Z,1008.34
2018-12-19T11:11:04.351Z,1008.36
2018-12-19T11:12:04.437Z,1008.36
2018-12-19T11:13:04.467Z,1008.36
2018-12-19T11:15:04.490Z,1008.36
2018-12-19T11:16:04.515Z,1008.38
2018-12-19T11:17:04.553Z,1008.37
2018-12-19T11:18:04.633Z,1008.40
2018-12-19T11:19:04.660Z,1008.39
2018-12-19T11:21:04.715Z,1008.36
2018-12-19T11:23:04.786Z,1008.35
2018-12-19T11:24:04.811Z,1008.38
2018-12-19T11:25:04.893Z,1008.39
2018-12-19T11:26:04.882Z,1008.40
2018-12-19T11:27:04.856Z,1008.41
2018-12-19T11:28:04.891Z,1008.44
2018-12-19T11:30:05.108Z,1008.43
2018-12-19T11:31:04.989Z,1008.38
2018-12-19T11:32:05.078Z,1008.36
2018-12-19T11:34:05.077Z,1008.33
2018-12-19T11:35:05.182Z,1008.35
2018-12-19T11:36:05.491Z,1008.37
2018-12-19T11:37:05.181Z,1008.37
2018-12-19T11:38:05.205Z,1008.34
2018-12-19T11:39:05.289Z,1008.35
2018-12-19T11:41:05.348Z,1008.32
2018-12-19T11:42:05.418Z,1008.27
2018-12-19T11:43:05.364Z,1008.31
2018-12-19T11:44:05.397Z,1008.30
2018-12-19T11:45:05.427Z,1008.29
2018-12-19T11:46:05.513Z,1008.31
2018-12-19T11:47:05.504Z,1008.28
2018-12-19T11:48:05.572Z,1008.28
2018-12-19T11:49:05.557Z,1008.31
2018-12-19T11:50:05.640Z,1008.35
2018-12-19T11:51:05.622Z,1008.38
2018-12-19T11:52:05.700Z,1008.33
2018-12-19T11:53:05.740Z,1008.36
2018-12-19T11:54:05.712Z,1008.32
2018-12-19T11:55:05.798Z,1008.30
2018-12-19T11:56:05.826Z,1008.36
2018-12-19T11:57:05.865Z,1008.32
2018-12-19T11:59:05.925Z,1008.26
2018-12-19T12:00:05.946Z,1008.30
2018-12-19T12:02:06.023Z,1008.24
2018-12-19T12:03:06.003Z,1008.25
2018-12-19T12:04:06.034Z,1008.24
2018-12-19T12:05:06.110Z,1008.24
2018-12-19T12:06:06.136Z,1008.27
2018-12-19T12:07:06.126Z,1008.25
2018-12-19T12:08:06.154Z,1008.20
2018-12-19T12:09:06.182Z,1008.21
2018-12-19T12:11:06.252Z,1008.22
2018-12-19T12:12:06.332Z,1008.23
2018-12-19T12:15:06.381Z,1008.21
2018-12-19T12:16:06.402Z,1008.20
2018-12-19T12:17:06.484Z,1008.20
2018-12-19T12:18:06.518Z,1008.21
2018-12-19T12:19:06.505Z,1008.19
2018-12-19T12:20:06.630Z,1008.20
2018-12-19T12:21:06.563Z,1008.19
2018-12-19T12:22:06.639Z,1008.16
2018-12-19T12:23:06.623Z,1008.18
2018-12-19T12:24:06.704Z,1008.15
2018-12-19T12:25:06.691Z,1008.14
2018-12-19T12:26:06.769Z,1008.10
2018-12-19T12:27:06.803Z,1008.09
2018-12-19T12:29:06.864Z,1008.06
2018-12-19T12:32:06.919Z,1008.03
2018-12-19T12:33:06.939Z,1008.02
2018-12-19T12:34:07.021Z,1008.01
2018-12-19T12:35:07.002Z,1008.06
2018-12-19T12:36:07.097Z,1008.02
2018-12-19T12:37:07.122Z,1008.02
2018-12-19T12:38:07.147Z,1007.96
2018-12-19T12:40:07.167Z,1008.00
2018-12-19T12:41:07.243Z,1008.00
2018-12-19T12:42:07.276Z,1007.98
2018-12-19T12:44:07.295Z,1008.01
2018-12-19T12:45:07.324Z,1008.01
2018-12-19T12:46:07.398Z,1007.98
2018-12-19T12:47:07.384Z,1008.02
2018-12-19T12:48:07.464Z,1007.98
2018-12-19T12:49:07.455Z,1008.02
2018-12-19T12:51:07.559Z,1008.01
2018-12-19T12:52:07.598Z,1008.00
2018-12-19T12:53:07.576Z,1007.99
2018-12-19T12:54:07.672Z,1008.01
2018-12-19T12:55:07.637Z,1008.01
2018-12-19T12:57:07.702Z,1007.98